Weather reports worldwide

Advertisment
Lagunas de Somoza, Spain (8123): temperature & dewpoint: 24.10.2020 11:00:00 - 30.10.2020 11:00:00 (CET)Lagunas de Somoza, Spain (8123): wind speed & gusts: 24.10.2020 11:00:00 - 30.10.2020 11:00:00 (CET)Lagunas de Somoza, Spain (8123): wind direction: 24.10.2020 11:00:00 - 30.10.2020 11:00:00 (CET)Lagunas de Somoza, Spain (8123): precipitation: 24.10.2020 11:00:00 - 30.10.2020 11:00:00 (CET)
Date & Time tt [°C] td [°C] ff [km/h] ff [kn] fx [km/h] fx [kn] dd rr [mm]
30.10.2020 11:00:00 - - - - - - - -
30.10.2020 10:00:00 6,6 5,6 3 1 8 4 W 0,0
30.10.2020 09:00:00 5,5 4,6 4 2 9 5 W 0,0
30.10.2020 08:00:00 4,9 3,9 4 2 8 5 W 0,0
30.10.2020 07:00:00 5,3 4,5 5 3 6 4 W -
30.10.2020 06:00:00 5,4 4,5 2 1 5 3 NNE 0,0
30.10.2020 05:00:00 5,4 4,6 2 1 4 2 NNE 0,0
30.10.2020 04:00:00 5,2 4,3 1 0 4 2 WSW 0,0
30.10.2020 03:00:00 4,4 3,6 2 1 5 3 N 0,0
30.10.2020 02:00:00 0,9 0,0 3 2 5 3 NW 0,0
30.10.2020 01:00:00 0,8 0,0 4 2 6 3 NNW -
30.10.2020 00:00:00 0,9 0,0 4 2 8 4 NW 0,0
29.10.2020 23:00:00 1,9 1,1 4 2 5 3 NW 0,0
29.10.2020 22:00:00 4,7 3,6 3 2 9 5 NNE 0,0
29.10.2020 21:00:00 2,9 1,9 3 1 4 2 NNE 0,0
29.10.2020 20:00:00 4,3 2,3 0 0 6 3 E 0,0
29.10.2020 19:00:00 - - - - - - - -
29.10.2020 18:00:00 11,3 3,0 5 3 13 7 SE 0,0
29.10.2020 17:00:00 13,8 3,8 8 5 15 8 SSE 0,0
29.10.2020 16:00:00 13,9 3,9 7 4 16 8 S 0,0
29.10.2020 15:00:00 13,4 3,9 6 3 14 7 S 0,0
29.10.2020 14:00:00 11,0 3,8 4 2 11 6 ENE 0,0
29.10.2020 13:00:00 9,1 4,3 1 1 8 4 SSE -
29.10.2020 12:00:00 7,4 4,5 5 3 13 7 SSW 0,0
29.10.2020 11:00:00 6,3 5,5 5 3 13 7 S 0,0
29.10.2020 10:00:00 5,3 4,5 3 1 8 5 S 0,0
29.10.2020 09:00:00 3,1 2,3 1 1 5 3 SE 0,0
29.10.2020 08:00:00 -0,9 -1,7 1 1 6 4 NE 0,0
29.10.2020 07:00:00 -0,5 -1,2 4 2 6 3 NW -
29.10.2020 06:00:00 0,1 -0,7 2 1 6 3 WNW 0,0
29.10.2020 05:00:00 0,2 -0,7 1 0 6 3 NNW 0,0
29.10.2020 04:00:00 0,5 -0,5 3 2 9 5 NW 0,0
29.10.2020 03:00:00 1,2 0,0 6 4 10 5 WNW 0,0
29.10.2020 02:00:00 1,1 -0,3 5 3 9 5 NW 0,0
29.10.2020 01:00:00 2,7 1,3 8 4 10 5 WNW -
29.10.2020 00:00:00 1,9 0,6 3 2 8 5 NW 0,0
28.10.2020 23:00:00 2,1 0,6 1 0 5 3 NW 0,0
28.10.2020 22:00:00 3,0 1,1 3 2 5 3 NNW 0,0
28.10.2020 21:00:00 4,4 1,1 0 0 9 5 SSE 0,0
28.10.2020 20:00:00 6,0 1,9 3 1 13 7 W 0,0
28.10.2020 19:00:00 7,6 1,7 9 5 29 16 WNW -
28.10.2020 18:00:00 9,1 1,5 17 9 29 16 NNW 0,0
28.10.2020 17:00:00 12,0 2,5 11 6 19 11 N 0,0
28.10.2020 16:00:00 12,5 2,1 15 8 36 19 NW 0,0
28.10.2020 15:00:00 13,4 2,9 15 8 37 20 NNW 0,0
28.10.2020 14:00:00 13,8 3,2 13 7 26 14 N 0,0
28.10.2020 13:00:00 15,1 3,6 5 3 13 7 SSE -
28.10.2020 12:00:00 13,3 3,9 6 4 16 8 S 0,0
28.10.2020 11:00:00 13,1 4,8 4 2 10 5 SE 0,0
28.10.2020 10:00:00 10,9 7,7 1 1 7 4 SSW 0,0
28.10.2020 09:00:00 4,8 3,9 0 0 5 3 NE 0,0
28.10.2020 08:00:00 3,4 2,5 7 4 10 5 WNW 0,0
28.10.2020 07:00:00 4,2 3,2 6 3 8 5 WNW -
28.10.2020 06:00:00 5,2 4,3 1 1 5 3 NNW 0,0
28.10.2020 05:00:00 6,5 5,6 1 1 14 7 NW 0,0
28.10.2020 04:00:00 7,6 6,7 8 5 15 8 WNW 0,0
28.10.2020 03:00:00 7,4 6,5 6 3 9 5 NE 0,0
28.10.2020 02:00:00 7,7 6,8 3 1 22 12 ENE 0,0
28.10.2020 01:00:00 7,7 6,8 5 3 11 6 ENE -
28.10.2020 00:00:00 7,9 7,0 5 3 10 5 ENE 0,0
27.10.2020 23:00:00 8,0 7,0 4 2 9 5 NE 0,0
27.10.2020 22:00:00 8,4 7,3 5 3 10 5 ENE 0,1
27.10.2020 21:00:00 8,4 7,3 4 2 11 6 NNE 0,0
27.10.2020 20:00:00 8,8 7,1 6 4 12 6 N 0,0
27.10.2020 19:00:00 9,2 6,7 6 3 12 7 ENE -
27.10.2020 18:00:00 9,7 6,2 10 5 14 8 ENE 0,0
27.10.2020 17:00:00 10,5 6,2 9 5 15 8 NE 0,0
27.10.2020 16:00:00 10,8 5,9 10 5 16 9 NNE 0,0
27.10.2020 15:00:00 11,6 2,9 9 5 17 9 NE 0,0
27.10.2020 14:00:00 13,7 2,9 10 5 16 9 E 0,0
27.10.2020 13:00:00 15,2 3,0 7 4 15 8 E -
27.10.2020 12:00:00 13,7 2,7 8 5 18 10 E 0,0
27.10.2020 11:00:00 12,6 2,1 4 2 11 6 E 0,0
27.10.2020 10:00:00 10,2 1,5 7 4 13 7 SSE 0,0
27.10.2020 09:00:00 6,6 3,0 2 1 5 3 W 0,0
27.10.2020 08:00:00 3,2 1,7 1 1 5 3 NW 0,0
27.10.2020 07:00:00 3,5 1,5 0 0 5 3 NW -
27.10.2020 06:00:00 4,0 1,9 3 2 5 3 NW 0,0
27.10.2020 05:00:00 3,8 1,9 1 0 5 3 W 0,0
27.10.2020 04:00:00 3,6 1,5 1 1 6 3 S 0,0
27.10.2020 03:00:00 3,5 1,1 3 2 6 4 SE 0,0
27.10.2020 02:00:00 4,1 1,1 2 1 5 3 WSW 0,0
27.10.2020 01:00:00 4,3 0,6 2 1 9 5 SE -
27.10.2020 00:00:00 5,4 0,9 1 1 9 5 W 0,0
26.10.2020 23:00:00 5,2 1,5 2 1 12 7 S 0,0
26.10.2020 22:00:00 5,3 1,5 6 3 11 6 NNW 0,0
26.10.2020 21:00:00 5,1 0,4 5 3 21 11 WNW 0,0
26.10.2020 20:00:00 5,4 0,4 14 8 25 13 WNW 0,0
26.10.2020 19:00:00 5,0 0,0 13 7 25 14 NW -
26.10.2020 18:00:00 6,3 -0,7 21 11 30 16 WNW 0,0
26.10.2020 17:00:00 6,5 -0,3 20 11 32 18 WNW 0,0
26.10.2020 16:00:00 8,8 -0,5 21 11 31 17 WNW 0,0
26.10.2020 15:00:00 9,3 -0,3 22 12 40 22 W 0,0
26.10.2020 14:00:00 7,2 -0,5 22 12 34 18 WNW 0,0
26.10.2020 13:00:00 7,5 -1,0 23 13 45 24 WNW -
26.10.2020 12:00:00 7,2 -0,5 31 17 42 23 WNW 0,0
26.10.2020 11:00:00 6,5 0,0 12 7 30 16 W 0,0
26.10.2020 10:00:00 4,6 -0,7 11 6 28 15 WNW 0,0
26.10.2020 09:00:00 3,9 -0,7 3 2 40 22 W 0,0
26.10.2020 08:00:00 2,8 -1,4 25 14 36 20 WNW 0,0
26.10.2020 07:00:00 2,4 -2,0 7 4 38 20 W -
26.10.2020 06:00:00 2,4 -1,7 9 5 31 17 NW 0,0
26.10.2020 05:00:00 2,7 -2,0 19 10 32 18 WNW 0,0
26.10.2020 04:00:00 3,0 -0,7 6 3 16 9 WNW 0,0
26.10.2020 03:00:00 2,1 -0,7 0 0 14 8 ENE 0,0
26.10.2020 02:00:00 2,0 -1,7 10 5 23 13 NW 0,0
26.10.2020 01:00:00 2,9 -0,5 11 6 24 13 WNW -
26.10.2020 00:00:00 3,4 -0,7 13 7 23 13 WNW 0,0
25.10.2020 23:00:00 3,2 -1,2 9 5 31 17 NW 0,0
25.10.2020 22:00:00 3,1 -1,2 16 9 29 16 WNW 0,0
25.10.2020 21:00:00 3,1 -2,0 8 4 30 16 WNW 0,0
25.10.2020 20:00:00 3,5 -1,4 18 10 32 18 WNW 0,0
25.10.2020 19:00:00 2,9 -1,2 6 4 42 23 NNE -
25.10.2020 18:00:00 5,5 -2,2 18 10 45 24 W 0,0
25.10.2020 17:00:00 6,5 -1,4 29 16 42 23 W 0,0
25.10.2020 16:00:00 7,8 0,0 32 17 53 29 WNW 0,1
25.10.2020 15:00:00 11,7 1,9 25 14 46 25 W 0,0
25.10.2020 14:00:00 10,1 3,4 23 12 36 19 WNW 0,0
25.10.2020 13:00:00 11,8 5,0 16 9 34 19 W -
25.10.2020 12:00:00 11,5 4,3 19 10 34 18 W 0,0
25.10.2020 11:00:00 9,8 6,5 2 1 11 6 WNW 0,1
25.10.2020 10:00:00 9,3 8,1 2 1 6 3 NNE 0,9
25.10.2020 09:00:00 8,9 7,6 1 1 12 6 ENE 0,3
25.10.2020 08:00:00 8,9 7,6 7 4 11 6 NE 0,8
25.10.2020 07:00:00 9,2 7,7 5 3 13 7 W -
25.10.2020 06:00:00 8,9 7,3 5 3 23 12 S 1,4
25.10.2020 05:00:00 9,0 7,1 11 6 19 10 SE 0,3
25.10.2020 04:00:00 9,2 7,3 13 7 27 14 SE 0,0
25.10.2020 03:00:00 8,9 6,8 15 8 28 15 ESE 0,0
25.10.2020 02:00:00 9,2 6,7 10 5 25 13 ESE 0,0
25.10.2020 01:00:00 - - - - - - - -
25.10.2020 00:00:00 9,0 7,3 12 6 25 14 SE 0,0
24.10.2020 23:00:00 8,8 7,4 16 9 29 16 SE 0,1
24.10.2020 22:00:00 9,4 6,2 10 6 35 19 S 0,0
24.10.2020 21:00:00 10,8 5,0 22 12 53 28 SW 0,0
24.10.2020 20:00:00 11,2 3,8 21 11 42 23 WSW 0,0
24.10.2020 19:00:00 9,9 4,6 14 8 31 17 SSW -
24.10.2020 18:00:00 11,0 3,6 13 7 29 16 SW 0,0
24.10.2020 17:00:00 11,0 3,6 14 7 29 16 SW 0,0
24.10.2020 16:00:00 12,2 3,2 14 8 31 17 SW 0,0
24.10.2020 15:00:00 13,8 3,8 14 7 30 16 S 0,0
24.10.2020 14:00:00 13,5 3,8 14 8 27 15 SW 0,0
24.10.2020 13:00:00 - - - - - - - -
24.10.2020 12:00:00 11,0 4,3 10 5 16 9 ENE 0,0
24.10.2020 11:00:00 8,6 3,2 8 5 14 7 E 0,0

tt = temperature
td = dewpoint
ff = wind speed
fx = gusts
dd = wind direction
rr = precipitation

Next stations